sensor_id;sensor_type;location;lat;lon;timestamp;temperature;humidity
29207;DHT22;16247;50.840;4.382;2022-08-19T00:00:08;22.40;99.90
29207;DHT22;16247;50.840;4.382;2022-08-19T00:02:35;22.50;99.90
29207;DHT22;16247;50.840;4.382;2022-08-19T00:05:01;22.50;99.90
29207;DHT22;16247;50.840;4.382;2022-08-19T00:07:27;22.50;99.90
29207;DHT22;16247;50.840;4.382;2022-08-19T00:09:53;22.50;99.90
29207;DHT22;16247;50.840;4.382;2022-08-19T00:12:19;22.40;99.90
29207;DHT22;16247;50.840;4.382;2022-08-19T00:14:45;22.60;99.90
29207;DHT22;16247;50.840;4.382;2022-08-19T00:17:11;22.50;99.90
29207;DHT22;16247;50.840;4.382;2022-08-19T00:19:38;22.30;99.90
29207;DHT22;16247;50.840;4.382;2022-08-19T00:22:04;22.20;99.90
29207;DHT22;16247;50.840;4.382;2022-08-19T00:24:31;22.20;99.90
29207;DHT22;16247;50.840;4.382;2022-08-19T00:26:57;22.00;99.90
29207;DHT22;16247;50.840;4.382;2022-08-19T00:29:24;21.90;99.90
29207;DHT22;16247;50.840;4.382;2022-08-19T00:31:51;21.80;99.90
29207;DHT22;16247;50.840;4.382;2022-08-19T00:34:21;21.90;99.90
29207;DHT22;16247;50.840;4.382;2022-08-19T00:36:48;21.90;99.90
29207;DHT22;16247;50.840;4.382;2022-08-19T00:39:16;21.80;99.90
29207;DHT22;16247;50.840;4.382;2022-08-19T00:41:43;21.60;99.90
29207;DHT22;16247;50.840;4.382;2022-08-19T00:44:16;21.50;99.90
29207;DHT22;16247;50.840;4.382;2022-08-19T00:46:44;21.60;99.90
29207;DHT22;16247;50.840;4.382;2022-08-19T00:49:20;21.50;99.90
29207;DHT22;16247;50.840;4.382;2022-08-19T00:51:52;21.50;99.90
29207;DHT22;16247;50.840;4.382;2022-08-19T00:54:19;21.40;99.90
29207;DHT22;16247;50.840;4.382;2022-08-19T00:56:46;21.40;99.90
29207;DHT22;16247;50.840;4.382;2022-08-19T00:59:15;21.40;99.90
29207;DHT22;16247;50.840;4.382;2022-08-19T01:01:42;21.40;99.90
29207;DHT22;16247;50.840;4.382;2022-08-19T01:04:09;21.30;99.90
29207;DHT22;16247;50.840;4.382;2022-08-19T01:06:37;21.40;99.90
29207;DHT22;16247;50.840;4.382;2022-08-19T01:09:03;21.30;99.90
29207;DHT22;16247;50.840;4.382;2022-08-19T01:11:34;21.30;99.90
29207;DHT22;16247;50.840;4.382;2022-08-19T01:14:00;21.40;99.90
29207;DHT22;16247;50.840;4.382;2022-08-19T01:16:27;21.30;99.90
29207;DHT22;16247;50.840;4.382;2022-08-19T01:18:54;21.30;99.90
29207;DHT22;16247;50.840;4.382;2022-08-19T01:23:48;21.10;99.90
29207;DHT22;16247;50.840;4.382;2022-08-19T01:26:18;21.00;99.90
29207;DHT22;16247;50.840;4.382;2022-08-19T01:28:45;21.00;99.90
29207;DHT22;16247;50.840;4.382;2022-08-19T01:31:18;21.00;99.90
29207;DHT22;16247;50.840;4.382;2022-08-19T01:33:44;21.00;99.90
29207;DHT22;16247;50.840;4.382;2022-08-19T01:36:13;21.00;99.90
29207;DHT22;16247;50.840;4.382;2022-08-19T01:38:41;21.00;99.90
29207;DHT22;16247;50.840;4.382;2022-08-19T01:41:09;21.00;99.90
29207;DHT22;16247;50.840;4.382;2022-08-19T01:43:35;20.90;99.90
29207;DHT22;16247;50.840;4.382;2022-08-19T01:46:02;20.90;99.90
29207;DHT22;16247;50.840;4.382;2022-08-19T01:48:36;20.90;99.90
29207;DHT22;16247;50.840;4.382;2022-08-19T01:51:02;20.90;99.90
29207;DHT22;16247;50.840;4.382;2022-08-19T01:53:28;20.90;99.90
29207;DHT22;16247;50.840;4.382;2022-08-19T01:55:53;20.90;99.90
29207;DHT22;16247;50.840;4.382;2022-08-19T01:58:24;20.80;99.90
29207;DHT22;16247;50.840;4.382;2022-08-19T02:00:52;20.70;99.90
29207;DHT22;16247;50.840;4.382;2022-08-19T02:03:17;20.70;99.90
29207;DHT22;16247;50.840;4.382;2022-08-19T02:05:44;20.70;99.90
29207;DHT22;16247;50.840;4.382;2022-08-19T02:08:10;20.60;99.90
29207;DHT22;16247;50.840;4.382;2022-08-19T02:10:41;20.70;99.90
29207;DHT22;16247;50.840;4.382;2022-08-19T02:13:07;20.70;99.90
29207;DHT22;16247;50.840;4.382;2022-08-19T02:15:33;20.70;99.90
29207;DHT22;16247;50.840;4.382;2022-08-19T02:17:59;20.70;99.90
29207;DHT22;16247;50.840;4.382;2022-08-19T02:20:24;20.50;99.90
29207;DHT22;16247;50.840;4.382;2022-08-19T02:22:50;20.50;99.90
29207;DHT22;16247;50.840;4.382;2022-08-19T02:25:16;20.50;99.90
29207;DHT22;16247;50.840;4.382;2022-08-19T02:27:43;20.40;99.90
29207;DHT22;16247;50.840;4.382;2022-08-19T02:30:13;20.40;99.90
29207;DHT22;16247;50.840;4.382;2022-08-19T02:32:41;20.30;99.90
29207;DHT22;16247;50.840;4.382;2022-08-19T02:35:07;20.20;99.90
29207;DHT22;16247;50.840;4.382;2022-08-19T02:37:34;20.20;99.90
29207;DHT22;16247;50.840;4.382;2022-08-19T02:40:18;20.20;99.90
29207;DHT22;16247;50.840;4.382;2022-08-19T02:42:44;20.20;99.90
29207;DHT22;16247;50.840;4.382;2022-08-19T02:45:11;20.10;99.90
29207;DHT22;16247;50.840;4.382;2022-08-19T02:47:37;20.00;99.90
29207;DHT22;16247;50.840;4.382;2022-08-19T02:50:04;19.80;99.90
29207;DHT22;16247;50.840;4.382;2022-08-19T02:52:32;19.80;99.90
29207;DHT22;16247;50.840;4.382;2022-08-19T02:54:58;19.90;99.90
29207;DHT22;16247;50.840;4.382;2022-08-19T02:57:24;19.80;99.90
29207;DHT22;16247;50.840;4.382;2022-08-19T02:59:50;19.70;99.90
29207;DHT22;16247;50.840;4.382;2022-08-19T03:02:17;19.70;99.90
29207;DHT22;16247;50.840;4.382;2022-08-19T03:04:42;19.70;99.90
29207;DHT22;16247;50.840;4.382;2022-08-19T03:07:09;19.60;99.90
29207;DHT22;16247;50.840;4.382;2022-08-19T03:09:37;19.60;99.90
29207;DHT22;16247;50.840;4.382;2022-08-19T03:12:04;19.50;99.90
29207;DHT22;16247;50.840;4.382;2022-08-19T03:14:31;19.60;99.90
29207;DHT22;16247;50.840;4.382;2022-08-19T03:16:58;19.60;99.90
29207;DHT22;16247;50.840;4.382;2022-08-19T03:19:23;19.50;99.90
29207;DHT22;16247;50.840;4.382;2022-08-19T03:21:50;19.50;99.90
29207;DHT22;16247;50.840;4.382;2022-08-19T03:24:17;19.60;99.90
29207;DHT22;16247;50.840;4.382;2022-08-19T03:26:47;19.30;99.90
29207;DHT22;16247;50.840;4.382;2022-08-19T03:29:14;19.30;99.90
29207;DHT22;16247;50.840;4.382;2022-08-19T03:31:42;19.30;99.90
29207;DHT22;16247;50.840;4.382;2022-08-19T03:34:10;19.20;99.90
29207;DHT22;16247;50.840;4.382;2022-08-19T03:36:37;19.20;99.90
29207;DHT22;16247;50.840;4.382;2022-08-19T03:39:04;19.20;99.90
29207;DHT22;16247;50.840;4.382;2022-08-19T03:41:32;19.20;99.90
29207;DHT22;16247;50.840;4.382;2022-08-19T03:43:59;19.10;99.90
29207;DHT22;16247;50.840;4.382;2022-08-19T03:46:29;19.10;99.90
29207;DHT22;16247;50.840;4.382;2022-08-19T03:48:57;19.10;99.90
29207;DHT22;16247;50.840;4.382;2022-08-19T03:51:25;19.10;99.90
29207;DHT22;16247;50.840;4.382;2022-08-19T03:53:53;19.10;99.90
29207;DHT22;16247;50.840;4.382;2022-08-19T03:56:19;18.80;99.90
29207;DHT22;16247;50.840;4.382;2022-08-19T03:58:45;18.70;99.90
29207;DHT22;16247;50.840;4.382;2022-08-19T04:01:18;18.70;99.90
29207;DHT22;16247;50.840;4.382;2022-08-19T04:03:45;18.60;99.90
29207;DHT22;16247;50.840;4.382;2022-08-19T04:08:41;18.70;99.90
29207;DHT22;16247;50.840;4.382;2022-08-19T04:11:11;18.50;99.90
29207;DHT22;16247;50.840;4.382;2022-08-19T04:13:37;18.40;99.90
29207;DHT22;16247;50.840;4.382;2022-08-19T04:16:04;18.30;99.90
29207;DHT22;16247;50.840;4.382;2022-08-19T04:18:30;18.30;99.90
29207;DHT22;16247;50.840;4.382;2022-08-19T04:20:56;18.40;99.90
29207;DHT22;16247;50.840;4.382;2022-08-19T04:23:22;18.40;99.90
29207;DHT22;16247;50.840;4.382;2022-08-19T04:25:48;18.20;99.90
29207;DHT22;16247;50.840;4.382;2022-08-19T04:28:15;18.00;99.90
29207;DHT22;16247;50.840;4.382;2022-08-19T04:30:46;18.00;99.90
29207;DHT22;16247;50.840;4.382;2022-08-19T04:33:14;17.90;99.90
29207;DHT22;16247;50.840;4.382;2022-08-19T04:35:43;17.90;99.90
29207;DHT22;16247;50.840;4.382;2022-08-19T04:38:09;18.00;99.90
29207;DHT22;16247;50.840;4.382;2022-08-19T04:40:41;18.10;99.90
29207;DHT22;16247;50.840;4.382;2022-08-19T04:43:26;18.00;99.90
29207;DHT22;16247;50.840;4.382;2022-08-19T04:45:51;18.10;99.90
29207;DHT22;16247;50.840;4.382;2022-08-19T04:48:18;18.00;99.90
29207;DHT22;16247;50.840;4.382;2022-08-19T04:50:52;18.00;99.90
29207;DHT22;16247;50.840;4.382;2022-08-19T04:53:23;18.00;99.90
29207;DHT22;16247;50.840;4.382;2022-08-19T04:55:49;18.20;99.90
29207;DHT22;16247;50.840;4.382;2022-08-19T04:58:15;18.00;99.90
29207;DHT22;16247;50.840;4.382;2022-08-19T05:00:41;18.10;99.90
29207;DHT22;16247;50.840;4.382;2022-08-19T05:03:07;18.20;99.90
29207;DHT22;16247;50.840;4.382;2022-08-19T05:05:33;18.40;99.90
29207;DHT22;16247;50.840;4.382;2022-08-19T05:07:59;18.30;99.90
29207;DHT22;16247;50.840;4.382;2022-08-19T05:10:24;18.30;99.90
29207;DHT22;16247;50.840;4.382;2022-08-19T05:12:50;18.30;99.90
29207;DHT22;16247;50.840;4.382;2022-08-19T05:15:16;18.40;99.90
29207;DHT22;16247;50.840;4.382;2022-08-19T05:17:41;18.30;99.90
29207;DHT22;16247;50.840;4.382;2022-08-19T05:20:27;18.40;99.90
29207;DHT22;16247;50.840;4.382;2022-08-19T05:23:11;18.40;99.90
29207;DHT22;16247;50.840;4.382;2022-08-19T05:25:42;18.30;99.90
29207;DHT22;16247;50.840;4.382;2022-08-19T05:28:08;18.30;99.90
29207;DHT22;16247;50.840;4.382;2022-08-19T05:30:34;18.40;99.90
29207;DHT22;16247;50.840;4.382;2022-08-19T05:33:00;18.30;99.90
29207;DHT22;16247;50.840;4.382;2022-08-19T05:35:25;18.30;99.90
29207;DHT22;16247;50.840;4.382;2022-08-19T05:37:51;18.40;99.90
29207;DHT22;16247;50.840;4.382;2022-08-19T05:40:18;18.40;99.90
29207;DHT22;16247;50.840;4.382;2022-08-19T05:42:43;18.50;99.90
29207;DHT22;16247;50.840;4.382;2022-08-19T05:45:09;18.50;99.90
29207;DHT22;16247;50.840;4.382;2022-08-19T05:47:35;18.60;99.90
29207;DHT22;16247;50.840;4.382;2022-08-19T05:50:01;18.60;99.90
29207;DHT22;16247;50.840;4.382;2022-08-19T05:52:27;18.70;99.90
29207;DHT22;16247;50.840;4.382;2022-08-19T05:54:53;18.70;99.90
29207;DHT22;16247;50.840;4.382;2022-08-19T05:57:20;18.80;99.90
29207;DHT22;16247;50.840;4.382;2022-08-19T05:59:46;18.80;99.90
29207;DHT22;16247;50.840;4.382;2022-08-19T06:02:13;18.80;99.90
29207;DHT22;16247;50.840;4.382;2022-08-19T06:04:39;18.70;99.90
29207;DHT22;16247;50.840;4.382;2022-08-19T06:07:08;18.90;99.90
29207;DHT22;16247;50.840;4.382;2022-08-19T06:09:34;18.90;99.90
29207;DHT22;16247;50.840;4.382;2022-08-19T06:12:00;18.90;99.90
29207;DHT22;16247;50.840;4.382;2022-08-19T06:14:32;18.80;99.90
29207;DHT22;16247;50.840;4.382;2022-08-19T06:17:00;18.90;99.90
29207;DHT22;16247;50.840;4.382;2022-08-19T06:19:28;18.90;99.90
29207;DHT22;16247;50.840;4.382;2022-08-19T06:21:58;18.90;99.90
29207;DHT22;16247;50.840;4.382;2022-08-19T06:24:28;18.90;99.90
29207;DHT22;16247;50.840;4.382;2022-08-19T06:26:56;18.90;99.90
29207;DHT22;16247;50.840;4.382;2022-08-19T06:29:24;19.10;99.90
29207;DHT22;16247;50.840;4.382;2022-08-19T06:31:53;19.10;99.90
29207;DHT22;16247;50.840;4.382;2022-08-19T06:34:20;19.20;99.90
29207;DHT22;16247;50.840;4.382;2022-08-19T06:36:49;19.30;99.90
29207;DHT22;16247;50.840;4.382;2022-08-19T06:39:22;19.30;99.90
29207;DHT22;16247;50.840;4.382;2022-08-19T06:41:51;19.40;99.90
29207;DHT22;16247;50.840;4.382;2022-08-19T06:44:19;19.30;99.90
29207;DHT22;16247;50.840;4.382;2022-08-19T06:46:45;19.50;99.90
29207;DHT22;16247;50.840;4.382;2022-08-19T06:49:11;19.60;99.90
29207;DHT22;16247;50.840;4.382;2022-08-19T06:51:41;19.70;99.90
29207;DHT22;16247;50.840;4.382;2022-08-19T06:54:07;19.80;99.90
29207;DHT22;16247;50.840;4.382;2022-08-19T06:56:32;19.70;99.90
29207;DHT22;16247;50.840;4.382;2022-08-19T06:59:03;19.60;99.90
29207;DHT22;16247;50.840;4.382;2022-08-19T07:01:30;19.60;99.90
29207;DHT22;16247;50.840;4.382;2022-08-19T07:03:55;19.50;99.90
29207;DHT22;16247;50.840;4.382;2022-08-19T07:06:22;19.50;99.90
29207;DHT22;16247;50.840;4.382;2022-08-19T07:08:48;19.50;99.90
29207;DHT22;16247;50.840;4.382;2022-08-19T07:11:16;19.60;99.90
29207;DHT22;16247;50.840;4.382;2022-08-19T07:13:43;19.70;99.90
29207;DHT22;16247;50.840;4.382;2022-08-19T07:16:12;19.80;99.90
29207;DHT22;16247;50.840;4.382;2022-08-19T07:18:39;19.60;99.90
29207;DHT22;16247;50.840;4.382;2022-08-19T07:21:05;19.70;99.90
29207;DHT22;16247;50.840;4.382;2022-08-19T07:23:31;19.70;99.90
29207;DHT22;16247;50.840;4.382;2022-08-19T07:25:57;19.70;99.90
29207;DHT22;16247;50.840;4.382;2022-08-19T07:28:24;19.90;99.90
29207;DHT22;16247;50.840;4.382;2022-08-19T07:30:49;20.00;99.90
29207;DHT22;16247;50.840;4.382;2022-08-19T07:33:17;20.10;99.90
29207;DHT22;16247;50.840;4.382;2022-08-19T07:35:44;20.20;99.90
29207;DHT22;16247;50.840;4.382;2022-08-19T07:38:10;20.10;99.90
29207;DHT22;16247;50.840;4.382;2022-08-19T07:40:35;20.20;99.90
29207;DHT22;16247;50.840;4.382;2022-08-19T07:43:01;20.30;99.90
29207;DHT22;16247;50.840;4.382;2022-08-19T07:45:27;20.40;99.90
29207;DHT22;16247;50.840;4.382;2022-08-19T07:47:53;20.50;99.90
29207;DHT22;16247;50.840;4.382;2022-08-19T07:50:21;20.50;99.90
29207;DHT22;16247;50.840;4.382;2022-08-19T07:52:48;20.30;99.90
29207;DHT22;16247;50.840;4.382;2022-08-19T07:55:20;20.30;99.90
29207;DHT22;16247;50.840;4.382;2022-08-19T07:57:46;20.40;99.90
29207;DHT22;16247;50.840;4.382;2022-08-19T08:00:13;20.60;99.90
29207;DHT22;16247;50.840;4.382;2022-08-19T08:02:38;20.60;99.90
29207;DHT22;16247;50.840;4.382;2022-08-19T08:05:05;20.70;99.90
29207;DHT22;16247;50.840;4.382;2022-08-19T08:07:49;20.80;99.90
29207;DHT22;16247;50.840;4.382;2022-08-19T08:10:33;20.80;99.90
29207;DHT22;16247;50.840;4.382;2022-08-19T08:12:59;20.70;99.90
29207;DHT22;16247;50.840;4.382;2022-08-19T08:15:24;20.80;99.90
29207;DHT22;16247;50.840;4.382;2022-08-19T08:17:50;20.90;99.90
29207;DHT22;16247;50.840;4.382;2022-08-19T08:20:18;21.00;99.90
29207;DHT22;16247;50.840;4.382;2022-08-19T08:22:46;21.20;99.90
29207;DHT22;16247;50.840;4.382;2022-08-19T08:25:31;21.30;99.90
29207;DHT22;16247;50.840;4.382;2022-08-19T08:27:57;21.30;99.90
29207;DHT22;16247;50.840;4.382;2022-08-19T08:30:29;21.30;99.90
29207;DHT22;16247;50.840;4.382;2022-08-19T08:32:55;21.20;99.90
29207;DHT22;16247;50.840;4.382;2022-08-19T08:35:22;21.20;99.90
29207;DHT22;16247;50.840;4.382;2022-08-19T08:37:51;21.10;99.90
29207;DHT22;16247;50.840;4.382;2022-08-19T08:45:27;21.30;99.90
29207;DHT22;16247;50.840;4.382;2022-08-19T08:47:56;21.20;99.90
29207;DHT22;16247;50.840;4.382;2022-08-19T08:50:31;21.20;99.90
29207;DHT22;16247;50.840;4.382;2022-08-19T08:53:01;21.40;99.90
29207;DHT22;16247;50.840;4.382;2022-08-19T08:55:30;21.40;99.90
29207;DHT22;16247;50.840;4.382;2022-08-19T08:58:03;21.50;99.90
29207;DHT22;16247;50.840;4.382;2022-08-19T09:00:35;21.60;99.90
29207;DHT22;16247;50.840;4.382;2022-08-19T09:03:05;21.50;99.90
29207;DHT22;16247;50.840;4.382;2022-08-19T09:10:57;21.40;99.90
29207;DHT22;16247;50.840;4.382;2022-08-19T09:16:15;21.50;99.90
29207;DHT22;16247;50.840;4.382;2022-08-19T09:18:50;21.50;99.90
29207;DHT22;16247;50.840;4.382;2022-08-19T09:21:22;21.40;99.90
29207;DHT22;16247;50.840;4.382;2022-08-19T09:23:48;21.50;99.90
29207;DHT22;16247;50.840;4.382;2022-08-19T09:26:16;21.50;99.90
29207;DHT22;16247;50.840;4.382;2022-08-19T09:28:44;21.40;99.90
29207;DHT22;16247;50.840;4.382;2022-08-19T09:31:12;21.40;99.90
29207;DHT22;16247;50.840;4.382;2022-08-19T09:33:38;21.50;99.90
29207;DHT22;16247;50.840;4.382;2022-08-19T09:36:06;21.60;99.90
29207;DHT22;16247;50.840;4.382;2022-08-19T09:38:33;21.70;99.90
29207;DHT22;16247;50.840;4.382;2022-08-19T09:41:08;21.70;99.90
29207;DHT22;16247;50.840;4.382;2022-08-19T09:43:37;21.90;99.90
29207;DHT22;16247;50.840;4.382;2022-08-19T09:46:04;22.10;99.90
29207;DHT22;16247;50.840;4.382;2022-08-19T09:48:32;22.10;99.90
29207;DHT22;16247;50.840;4.382;2022-08-19T09:51:08;22.00;99.90
29207;DHT22;16247;50.840;4.382;2022-08-19T09:53:35;21.90;99.90
29207;DHT22;16247;50.840;4.382;2022-08-19T09:56:01;21.70;99.90
29207;DHT22;16247;50.840;4.382;2022-08-19T09:58:27;21.70;99.90
29207;DHT22;16247;50.840;4.382;2022-08-19T10:00:56;21.70;99.90
29207;DHT22;16247;50.840;4.382;2022-08-19T10:03:24;21.80;99.90
29207;DHT22;16247;50.840;4.382;2022-08-19T10:05:49;21.90;99.90
29207;DHT22;16247;50.840;4.382;2022-08-19T10:08:24;22.00;99.90
29207;DHT22;16247;50.840;4.382;2022-08-19T10:10:51;21.90;99.90
29207;DHT22;16247;50.840;4.382;2022-08-19T10:13:20;22.00;99.90
29207;DHT22;16247;50.840;4.382;2022-08-19T10:15:49;21.90;99.90
29207;DHT22;16247;50.840;4.382;2022-08-19T10:18:16;21.90;99.90
29207;DHT22;16247;50.840;4.382;2022-08-19T10:20:45;22.00;99.90
29207;DHT22;16247;50.840;4.382;2022-08-19T10:23:12;22.10;99.90
29207;DHT22;16247;50.840;4.382;2022-08-19T10:25:40;22.20;99.90
29207;DHT22;16247;50.840;4.382;2022-08-19T10:28:07;22.10;99.90
29207;DHT22;16247;50.840;4.382;2022-08-19T10:30:33;22.20;99.90
29207;DHT22;16247;50.840;4.382;2022-08-19T10:33:00;22.20;99.90
29207;DHT22;16247;50.840;4.382;2022-08-19T10:35:26;22.20;99.90
29207;DHT22;16247;50.840;4.382;2022-08-19T10:37:55;22.30;99.90
29207;DHT22;16247;50.840;4.382;2022-08-19T10:40:28;22.20;99.90
29207;DHT22;16247;50.840;4.382;2022-08-19T10:42:54;22.30;99.90
29207;DHT22;16247;50.840;4.382;2022-08-19T10:45:23;22.50;99.90
29207;DHT22;16247;50.840;4.382;2022-08-19T10:47:53;22.30;99.90
29207;DHT22;16247;50.840;4.382;2022-08-19T10:50:19;22.20;99.90
29207;DHT22;16247;50.840;4.382;2022-08-19T10:53:08;22.20;99.90
29207;DHT22;16247;50.840;4.382;2022-08-19T10:55:34;22.40;99.90
29207;DHT22;16247;50.840;4.382;2022-08-19T10:58:21;22.50;99.90
29207;DHT22;16247;50.840;4.382;2022-08-19T11:00:55;22.40;99.90
29207;DHT22;16247;50.840;4.382;2022-08-19T11:03:24;22.30;99.90
29207;DHT22;16247;50.840;4.382;2022-08-19T11:06:06;22.30;99.90
29207;DHT22;16247;50.840;4.382;2022-08-19T11:08:34;22.40;99.90
29207;DHT22;16247;50.840;4.382;2022-08-19T11:11:01;22.40;99.90
29207;DHT22;16247;50.840;4.382;2022-08-19T11:13:36;22.50;99.90
29207;DHT22;16247;50.840;4.382;2022-08-19T11:16:10;22.40;99.90
29207;DHT22;16247;50.840;4.382;2022-08-19T11:18:39;22.40;99.90
29207;DHT22;16247;50.840;4.382;2022-08-19T11:21:12;22.40;99.90
29207;DHT22;16247;50.840;4.382;2022-08-19T11:23:40;22.50;99.90
29207;DHT22;16247;50.840;4.382;2022-08-19T11:26:06;22.70;99.90
29207;DHT22;16247;50.840;4.382;2022-08-19T11:28:31;22.80;99.90
29207;DHT22;16247;50.840;4.382;2022-08-19T11:30:57;22.70;99.90
29207;DHT22;16247;50.840;4.382;2022-08-19T11:33:23;22.70;99.90
29207;DHT22;16247;50.840;4.382;2022-08-19T11:35:48;22.70;99.90
29207;DHT22;16247;50.840;4.382;2022-08-19T11:38:14;22.80;99.90
29207;DHT22;16247;50.840;4.382;2022-08-19T11:40:40;22.80;99.90
29207;DHT22;16247;50.840;4.382;2022-08-19T11:43:07;22.60;99.90
29207;DHT22;16247;50.840;4.382;2022-08-19T11:45:35;22.60;99.90
29207;DHT22;16247;50.840;4.382;2022-08-19T11:48:02;22.60;99.90
29207;DHT22;16247;50.840;4.382;2022-08-19T11:50:27;22.60;99.90
29207;DHT22;16247;50.840;4.382;2022-08-19T11:52:55;22.70;99.90
29207;DHT22;16247;50.840;4.382;2022-08-19T11:55:21;22.60;99.90
29207;DHT22;16247;50.840;4.382;2022-08-19T11:57:49;22.50;99.90
29207;DHT22;16247;50.840;4.382;2022-08-19T12:00:16;22.60;99.90
29207;DHT22;16247;50.840;4.382;2022-08-19T12:02:41;22.60;99.90
29207;DHT22;16247;50.840;4.382;2022-08-19T12:05:08;22.80;99.90
29207;DHT22;16247;50.840;4.382;2022-08-19T12:07:34;23.00;99.90
29207;DHT22;16247;50.840;4.382;2022-08-19T12:10:00;23.10;99.90
29207;DHT22;16247;50.840;4.382;2022-08-19T12:12:27;23.30;99.90
29207;DHT22;16247;50.840;4.382;2022-08-19T12:14:53;23.40;99.90
29207;DHT22;16247;50.840;4.382;2022-08-19T12:17:29;23.40;99.90
29207;DHT22;16247;50.840;4.382;2022-08-19T12:19:57;23.70;99.90
29207;DHT22;16247;50.840;4.382;2022-08-19T12:22:23;23.80;99.90
29207;DHT22;16247;50.840;4.382;2022-08-19T12:24:49;23.90;99.90
29207;DHT22;16247;50.840;4.382;2022-08-19T12:27:18;23.90;99.90
29207;DHT22;16247;50.840;4.382;2022-08-19T12:29:44;23.90;99.90
29207;DHT22;16247;50.840;4.382;2022-08-19T12:32:09;23.90;99.90
29207;DHT22;16247;50.840;4.382;2022-08-19T12:34:36;24.00;99.90
29207;DHT22;16247;50.840;4.382;2022-08-19T12:37:04;23.80;99.90
29207;DHT22;16247;50.840;4.382;2022-08-19T12:39:38;24.00;99.90
29207;DHT22;16247;50.840;4.382;2022-08-19T12:42:04;24.10;99.90
29207;DHT22;16247;50.840;4.382;2022-08-19T12:44:31;24.00;99.90
29207;DHT22;16247;50.840;4.382;2022-08-19T12:46:58;24.10;99.90
29207;DHT22;16247;50.840;4.382;2022-08-19T12:49:24;24.10;99.90
29207;DHT22;16247;50.840;4.382;2022-08-19T12:51:50;24.10;99.90
29207;DHT22;16247;50.840;4.382;2022-08-19T12:54:15;24.00;99.90
29207;DHT22;16247;50.840;4.382;2022-08-19T12:56:42;24.00;99.90
29207;DHT22;16247;50.840;4.382;2022-08-19T12:59:09;24.10;99.90
29207;DHT22;16247;50.840;4.382;2022-08-19T13:01:36;24.20;99.90
29207;DHT22;16247;50.840;4.382;2022-08-19T13:04:02;24.30;99.90
29207;DHT22;16247;50.840;4.382;2022-08-19T13:06:28;24.30;99.90
29207;DHT22;16247;50.840;4.382;2022-08-19T13:08:55;24.30;99.90
29207;DHT22;16247;50.840;4.382;2022-08-19T13:11:21;24.50;99.90
29207;DHT22;16247;50.840;4.382;2022-08-19T13:13:51;24.50;99.90
29207;DHT22;16247;50.840;4.382;2022-08-19T13:16:18;24.60;99.90
29207;DHT22;16247;50.840;4.382;2022-08-19T13:18:45;24.60;99.90
29207;DHT22;16247;50.840;4.382;2022-08-19T13:21:19;24.70;99.90
29207;DHT22;16247;50.840;4.382;2022-08-19T13:23:48;24.80;99.90
29207;DHT22;16247;50.840;4.382;2022-08-19T13:26:15;24.70;99.90
29207;DHT22;16247;50.840;4.382;2022-08-19T13:28:42;24.60;99.90
29207;DHT22;16247;50.840;4.382;2022-08-19T13:31:29;24.60;99.90
29207;DHT22;16247;50.840;4.382;2022-08-19T13:34:15;24.60;99.90
29207;DHT22;16247;50.840;4.382;2022-08-19T13:36:41;24.60;99.90
29207;DHT22;16247;50.840;4.382;2022-08-19T13:39:07;24.70;99.90
29207;DHT22;16247;50.840;4.382;2022-08-19T13:41:34;24.70;99.90
29207;DHT22;16247;50.840;4.382;2022-08-19T13:44:00;24.60;99.90
29207;DHT22;16247;50.840;4.382;2022-08-19T13:46:27;24.60;99.90
29207;DHT22;16247;50.840;4.382;2022-08-19T13:48:54;24.60;99.90
29207;DHT22;16247;50.840;4.382;2022-08-19T13:51:20;24.70;99.90
29207;DHT22;16247;50.840;4.382;2022-08-19T13:53:45;24.70;99.90
29207;DHT22;16247;50.840;4.382;2022-08-19T13:56:17;24.70;99.90
29207;DHT22;16247;50.840;4.382;2022-08-19T13:58:45;24.60;99.90
29207;DHT22;16247;50.840;4.382;2022-08-19T14:01:11;24.50;99.90
29207;DHT22;16247;50.840;4.382;2022-08-19T14:03:36;24.60;99.90
29207;DHT22;16247;50.840;4.382;2022-08-19T14:06:02;24.60;99.90
29207;DHT22;16247;50.840;4.382;2022-08-19T14:08:28;24.60;99.90
29207;DHT22;16247;50.840;4.382;2022-08-19T14:10:58;24.60;99.90
29207;DHT22;16247;50.840;4.382;2022-08-19T14:13:24;24.50;99.90
29207;DHT22;16247;50.840;4.382;2022-08-19T14:15:51;24.50;99.90
29207;DHT22;16247;50.840;4.382;2022-08-19T14:18:17;24.40;99.90
29207;DHT22;16247;50.840;4.382;2022-08-19T14:20:43;24.10;99.90
29207;DHT22;16247;50.840;4.382;2022-08-19T14:23:10;23.80;99.90
29207;DHT22;16247;50.840;4.382;2022-08-19T14:25:38;23.60;99.90
29207;DHT22;16247;50.840;4.382;2022-08-19T14:28:04;23.50;99.90
29207;DHT22;16247;50.840;4.382;2022-08-19T14:30:31;23.60;99.90
29207;DHT22;16247;50.840;4.382;2022-08-19T14:32:58;23.60;99.90
29207;DHT22;16247;50.840;4.382;2022-08-19T14:35:27;23.60;99.90
29207;DHT22;16247;50.840;4.382;2022-08-19T14:37:54;23.50;99.90
29207;DHT22;16247;50.840;4.382;2022-08-19T14:40:20;23.50;99.90
29207;DHT22;16247;50.840;4.382;2022-08-19T14:42:47;23.50;99.90
29207;DHT22;16247;50.840;4.382;2022-08-19T14:45:14;23.60;99.90
29207;DHT22;16247;50.840;4.382;2022-08-19T14:47:40;23.50;99.90
29207;DHT22;16247;50.840;4.382;2022-08-19T14:50:07;23.40;99.90
29207;DHT22;16247;50.840;4.382;2022-08-19T14:52:33;23.20;99.90
29207;DHT22;16247;50.840;4.382;2022-08-19T14:54:59;23.00;99.90
29207;DHT22;16247;50.840;4.382;2022-08-19T14:57:25;23.00;99.90
29207;DHT22;16247;50.840;4.382;2022-08-19T14:59:50;22.90;99.90
29207;DHT22;16247;50.840;4.382;2022-08-19T15:02:17;23.00;99.90
29207;DHT22;16247;50.840;4.382;2022-08-19T15:04:43;23.10;99.90
29207;DHT22;16247;50.840;4.382;2022-08-19T15:07:09;23.20;99.90
29207;DHT22;16247;50.840;4.382;2022-08-19T15:09:35;23.30;99.90
29207;DHT22;16247;50.840;4.382;2022-08-19T15:12:01;23.60;99.90
29207;DHT22;16247;50.840;4.382;2022-08-19T15:14:28;23.80;99.90
29207;DHT22;16247;50.840;4.382;2022-08-19T15:17:02;23.90;99.90
29207;DHT22;16247;50.840;4.382;2022-08-19T15:19:29;23.90;99.90
29207;DHT22;16247;50.840;4.382;2022-08-19T15:21:55;24.10;99.90
29207;DHT22;16247;50.840;4.382;2022-08-19T15:24:22;24.10;99.90
29207;DHT22;16247;50.840;4.382;2022-08-19T15:26:53;24.20;99.90
29207;DHT22;16247;50.840;4.382;2022-08-19T15:29:21;24.20;99.90
29207;DHT22;16247;50.840;4.382;2022-08-19T15:31:50;24.20;99.90
29207;DHT22;16247;50.840;4.382;2022-08-19T15:34:16;24.20;99.90
29207;DHT22;16247;50.840;4.382;2022-08-19T15:36:43;24.10;99.90
29207;DHT22;16247;50.840;4.382;2022-08-19T15:39:09;24.00;99.90
29207;DHT22;16247;50.840;4.382;2022-08-19T15:41:35;24.10;99.90
29207;DHT22;16247;50.840;4.382;2022-08-19T15:44:05;24.00;99.90
29207;DHT22;16247;50.840;4.382;2022-08-19T15:46:36;24.10;99.90
29207;DHT22;16247;50.840;4.382;2022-08-19T15:49:04;24.20;99.90
29207;DHT22;16247;50.840;4.382;2022-08-19T15:51:31;24.00;99.90